createdAt,value
2022-08-26T00:00:59.575Z,101616.88
2022-08-26T00:03:26.575Z,101620.56
2022-08-26T00:05:54.334Z,101616.97
2022-08-26T00:08:21.542Z,101608.72
2022-08-26T00:10:48.304Z,101614.38
2022-08-26T00:13:16.409Z,101622.53
2022-08-26T00:15:47.270Z,101622.25
2022-08-26T00:18:21.850Z,101605.22
2022-08-26T00:20:49.703Z,101617.22
2022-08-26T00:23:17.827Z,101612.72
2022-08-26T00:25:44.852Z,101619.59
2022-08-26T00:28:11.850Z,101624.38
2022-08-26T00:30:39.008Z,101618.13
2022-08-26T00:33:06.413Z,101626.88
2022-08-26T00:35:35.180Z,101617.81
2022-08-26T00:38:02.915Z,101619.00
2022-08-26T00:40:36.557Z,101619.75
2022-08-26T00:43:09.295Z,101615.72
2022-08-26T00:45:45.261Z,101625.78
2022-08-26T00:48:14.718Z,101621.75
2022-08-26T00:50:49.200Z,101624.66
2022-08-26T00:53:24.185Z,101634.69
2022-08-26T00:56:01.869Z,101628.28
2022-08-26T00:58:31.292Z,101623.56
2022-08-26T01:00:57.843Z,101621.19
2022-08-26T01:03:26.137Z,101621.16
2022-08-26T01:05:57.030Z,101607.47
2022-08-26T01:08:24.910Z,101607.78
2022-08-26T01:10:54.924Z,101604.09
2022-08-26T01:13:23.196Z,101605.00
2022-08-26T01:15:56.826Z,101613.41
2022-08-26T01:18:25.371Z,101620.06
2022-08-26T01:20:57.958Z,101620.06
2022-08-26T01:23:31.865Z,101614.63
2022-08-26T01:26:02.973Z,101609.50
2022-08-26T01:28:34.057Z,101610.69
2022-08-26T01:31:03.895Z,101615.28
2022-08-26T01:33:48.135Z,101608.03
2022-08-26T01:36:17.909Z,101613.69
2022-08-26T01:38:47.313Z,101614.97
2022-08-26T01:41:16.278Z,101614.50
2022-08-26T01:43:50.722Z,101605.94
2022-08-26T01:46:18.440Z,101608.66
2022-08-26T01:48:47.980Z,101612.47
2022-08-26T01:51:20.387Z,101624.97
2022-08-26T01:53:47.507Z,101616.78
2022-08-26T01:56:14.909Z,101624.56
2022-08-26T01:58:48.523Z,101626.28
2022-08-26T02:01:15.745Z,101631.38
2022-08-26T02:03:51.456Z,101627.44
2022-08-26T02:06:22.215Z,101626.13
2022-08-26T02:08:52.949Z,101627.00
2022-08-26T02:11:20.618Z,101619.47
2022-08-26T02:13:52.057Z,101626.72
2022-08-26T02:16:23.882Z,101619.78
2022-08-26T02:18:53.893Z,101630.19
2022-08-26T02:21:20.574Z,101622.44
2022-08-26T02:23:47.691Z,101621.47
2022-08-26T02:26:21.621Z,101622.84
2022-08-26T02:29:00.006Z,101624.19
2022-08-26T02:31:27.324Z,101624.34
2022-08-26T02:33:53.945Z,101619.41
2022-08-26T02:36:28.746Z,101612.84
2022-08-26T02:38:55.630Z,101615.84
2022-08-26T02:41:23.081Z,101602.59
2022-08-26T02:43:49.820Z,101611.09
2022-08-26T02:46:27.730Z,101608.41
2022-08-26T02:48:56.275Z,101605.69
2022-08-26T02:51:22.896Z,101604.44
2022-08-26T02:53:49.908Z,101611.06
2022-08-26T02:56:17.697Z,101612.78
2022-08-26T02:58:44.304Z,101623.38
2022-08-26T03:01:30.391Z,101629.94
2022-08-26T03:03:59.257Z,101627.28
2022-08-26T03:06:25.972Z,101624.94
2022-08-26T03:08:52.532Z,101625.25
2022-08-26T03:11:19.573Z,101615.50
2022-08-26T03:13:46.495Z,101612.06
2022-08-26T03:16:13.580Z,101615.19
2022-08-26T03:18:41.058Z,101619.50
2022-08-26T03:21:14.003Z,101617.09
2022-08-26T03:23:42.744Z,101631.66
2022-08-26T03:26:11.027Z,101622.19
2022-08-26T03:28:58.249Z,101627.34
2022-08-26T03:31:25.426Z,101627.50
2022-08-26T03:33:52.183Z,101624.16
2022-08-26T03:36:19.549Z,101613.16
2022-08-26T03:38:46.087Z,101626.09
2022-08-26T03:41:12.692Z,101616.16
2022-08-26T03:43:40.669Z,101615.69
2022-08-26T03:46:09.174Z,101621.25
2022-08-26T03:48:36.445Z,101624.03
2022-08-26T03:51:05.192Z,101622.25
2022-08-26T03:53:31.736Z,101618.81
2022-08-26T03:55:58.263Z,101621.00
2022-08-26T03:58:25.335Z,101612.03
2022-08-26T04:00:55.606Z,101612.78
2022-08-26T04:03:41.528Z,101617.97
2022-08-26T04:06:08.254Z,101615.75
2022-08-26T04:08:36.269Z,101611.16
2022-08-26T04:11:02.877Z,101612.72
2022-08-26T04:13:30.255Z,101620.72
2022-08-26T04:15:57.593Z,101613.75
2022-08-26T04:18:24.334Z,101621.75
2022-08-26T04:20:50.885Z,101618.41
2022-08-26T04:23:17.395Z,101606.22
2022-08-26T04:25:43.861Z,101609.38
2022-08-26T04:28:10.667Z,101605.28
2022-08-26T04:30:38.006Z,101603.78
2022-08-26T04:33:04.633Z,101607.16
2022-08-26T04:35:39.784Z,101611.59
2022-08-26T04:38:10.556Z,101613.09
2022-08-26T04:40:37.527Z,101610.50
2022-08-26T04:43:05.836Z,101624.25
2022-08-26T04:45:36.638Z,101624.63
2022-08-26T04:48:03.963Z,101621.31
2022-08-26T04:50:30.839Z,101621.72
2022-08-26T04:52:57.417Z,101620.88
2022-08-26T04:55:38.241Z,101622.25
2022-08-26T04:58:08.855Z,101623.66
2022-08-26T05:00:37.192Z,101628.69
2022-08-26T05:03:03.756Z,101632.94
2022-08-26T05:05:30.675Z,101632.22
2022-08-26T05:07:57.237Z,101630.28
2022-08-26T05:10:24.003Z,101634.09
2022-08-26T05:12:50.536Z,101631.34
2022-08-26T05:15:17.232Z,101634.03
2022-08-26T05:17:43.818Z,101643.53
2022-08-26T05:20:11.038Z,101645.75
2022-08-26T05:22:38.708Z,101647.06
2022-08-26T05:25:05.694Z,101643.91
2022-08-26T05:27:35.588Z,101647.06
2022-08-26T05:30:03.948Z,101650.75
2022-08-26T05:32:31.983Z,101647.72
2022-08-26T05:34:58.696Z,101658.69
2022-08-26T05:37:25.240Z,101652.53
2022-08-26T05:39:52.147Z,101656.47
2022-08-26T05:42:19.960Z,101660.38
2022-08-26T05:44:53.989Z,101664.84
2022-08-26T05:47:22.394Z,101664.84
2022-08-26T05:49:51.574Z,101669.09
2022-08-26T05:52:19.066Z,101668.72
2022-08-26T05:54:45.706Z,101671.28
2022-08-26T05:57:14.336Z,101667.50
2022-08-26T05:59:40.854Z,101664.13
2022-08-26T06:02:08.488Z,101664.31
2022-08-26T06:04:35.740Z,101655.16
2022-08-26T06:07:03.032Z,101658.28
2022-08-26T06:09:32.268Z,101668.25
2022-08-26T06:12:01.803Z,101668.84
2022-08-26T06:14:28.727Z,101663.84
2022-08-26T06:16:55.409Z,101665.31
2022-08-26T06:19:32.791Z,101674.66
2022-08-26T06:22:23.327Z,101677.50
2022-08-26T06:25:08.508Z,101692.13
2022-08-26T06:27:36.795Z,101693.03
2022-08-26T06:30:03.669Z,101688.78
2022-08-26T06:32:30.413Z,101691.88
2022-08-26T06:34:57.839Z,101692.25
2022-08-26T06:37:24.351Z,101693.88
2022-08-26T06:39:51.182Z,101702.47
2022-08-26T06:42:17.997Z,101694.78
2022-08-26T06:44:44.970Z,101693.59
2022-08-26T06:47:11.591Z,101695.38
2022-08-26T06:49:38.128Z,101692.34
2022-08-26T06:52:06.399Z,101704.84
2022-08-26T06:54:32.898Z,101711.47
2022-08-26T06:57:00.083Z,101712.16
2022-08-26T06:59:26.816Z,101707.81
2022-08-26T07:01:54.441Z,101711.97
2022-08-26T07:04:23.267Z,101713.69
2022-08-26T07:06:52.845Z,101714.84
2022-08-26T07:09:22.267Z,101723.91
2022-08-26T07:11:49.387Z,101723.53
2022-08-26T07:14:16.849Z,101722.66
2022-08-26T07:16:47.516Z,101733.63
2022-08-26T07:19:14.289Z,101724.03
2022-08-26T07:21:44.179Z,101734.53
2022-08-26T07:24:11.533Z,101735.19
2022-08-26T07:26:39.341Z,101740.22
2022-08-26T07:29:13.970Z,101737.78
2022-08-26T07:31:42.771Z,101739.19
2022-08-26T07:34:10.635Z,101745.97
2022-08-26T07:36:37.300Z,101745.44
2022-08-26T07:39:03.906Z,101748.53
2022-08-26T07:43:56.955Z,101743.84
2022-08-26T07:46:29.930Z,101754.44
2022-08-26T07:48:57.576Z,101755.78
2022-08-26T07:51:24.961Z,101755.56
2022-08-26T07:53:52.319Z,101756.50
2022-08-26T07:56:20.154Z,101754.84
2022-08-26T07:58:51.280Z,101759.31
2022-08-26T08:01:18.527Z,101762.03
2022-08-26T08:03:45.366Z,101757.50
2022-08-26T08:06:12.097Z,101760.56
2022-08-26T08:08:41.348Z,101752.13
2022-08-26T08:11:08.064Z,101756.63
2022-08-26T08:13:39.197Z,101750.06
2022-08-26T08:16:06.944Z,101747.66
2022-08-26T08:18:40.173Z,101745.84
2022-08-26T08:21:24.095Z,101747.81
2022-08-26T08:23:52.255Z,101748.06
2022-08-26T08:26:18.922Z,101745.69
2022-08-26T08:28:48.001Z,101753.47
2022-08-26T08:31:54.532Z,101764.75
2022-08-26T08:34:16.160Z,101759.38
2022-08-26T08:36:46.395Z,101761.94
2022-08-26T08:39:13.610Z,101762.59
2022-08-26T08:41:47.008Z,101765.09
2022-08-26T08:44:19.177Z,101760.34
2022-08-26T08:46:50.552Z,101770.34
2022-08-26T08:49:17.778Z,101768.69
2022-08-26T08:52:06.703Z,101767.06
2022-08-26T08:54:33.934Z,101767.75
2022-08-26T08:57:26.120Z,101761.81
2022-08-26T09:00:02.626Z,101759.34
2022-08-26T09:02:43.399Z,101770.66
2022-08-26T09:05:21.566Z,101767.75
2022-08-26T09:08:19.854Z,101778.06
2022-08-26T09:10:52.419Z,101781.03
2022-08-26T09:13:25.048Z,101778.03
2022-08-26T09:16:07.356Z,101782.47
2022-08-26T09:18:59.496Z,101780.63
2022-08-26T09:21:26.722Z,101769.53
2022-08-26T09:23:56.601Z,101772.78
2022-08-26T09:26:30.591Z,101784.09
2022-08-26T09:29:03.270Z,101782.66
2022-08-26T09:31:40.487Z,101781.63
2022-08-26T09:34:17.536Z,101786.25
2022-08-26T09:36:53.716Z,101784.63
2022-08-26T09:39:39.087Z,101784.91
2022-08-26T09:42:20.800Z,101782.66
2022-08-26T09:45:08.475Z,101788.47
2022-08-26T09:47:48.205Z,101779.69
2022-08-26T09:50:37.409Z,101793.25
2022-08-26T09:53:28.747Z,101790.00
2022-08-26T09:56:25.657Z,101786.13
2022-08-26T09:58:55.059Z,101774.88
2022-08-26T10:01:32.919Z,101782.78
2022-08-26T10:04:21.443Z,101775.97
2022-08-26T10:07:04.221Z,101780.44
2022-08-26T10:09:43.221Z,101772.91
2022-08-26T10:12:18.774Z,101777.38
2022-08-26T10:14:52.093Z,101779.63
2022-08-26T10:17:35.605Z,101781.66
2022-08-26T10:20:22.826Z,101771.38
2022-08-26T10:23:05.305Z,101767.81
2022-08-26T10:25:45.427Z,101772.56
2022-08-26T10:28:44.424Z,101779.94
2022-08-26T10:31:27.671Z,101777.88
2022-08-26T10:33:58.866Z,101784.13
2022-08-26T10:37:14.724Z,101783.56
2022-08-26T10:40:07.717Z,101790.16
2022-08-26T10:42:42.743Z,101771.81
2022-08-26T10:45:14.871Z,101779.88
2022-08-26T10:47:48.396Z,101779.78
2022-08-26T10:50:18.130Z,101782.59
2022-08-26T10:53:05.482Z,101783.06
2022-08-26T10:55:53.767Z,101780.41
2022-08-26T10:58:46.934Z,101776.19
2022-08-26T11:01:41.164Z,101773.81
2022-08-26T11:04:17.332Z,101784.38
2022-08-26T11:06:46.824Z,101772.44
2022-08-26T11:09:46.170Z,101781.91
2022-08-26T11:12:39.023Z,101777.63
2022-08-26T11:15:08.317Z,101786.19
2022-08-26T11:17:44.632Z,101784.94
2022-08-26T11:20:23.757Z,101789.53
2022-08-26T11:22:51.886Z,101782.47
2022-08-26T11:25:20.139Z,101783.28
2022-08-26T11:27:52.712Z,101783.09
2022-08-26T11:30:20.255Z,101784.25
2022-08-26T11:32:48.885Z,101785.09
2022-08-26T11:35:19.269Z,101780.88
2022-08-26T11:37:48.470Z,101781.47
2022-08-26T11:40:21.517Z,101782.38
2022-08-26T11:42:55.946Z,101784.13
2022-08-26T11:45:28.534Z,101782.34
2022-08-26T11:47:56.107Z,101782.09
2022-08-26T11:50:28.610Z,101782.56
2022-08-26T11:53:07.596Z,101783.13
2022-08-26T11:55:41.633Z,101783.97
2022-08-26T11:58:12.543Z,101782.78
2022-08-26T12:00:58.134Z,101779.28
2022-08-26T12:03:50.031Z,101773.97
2022-08-26T12:09:00.638Z,101783.13
2022-08-26T12:11:31.130Z,101777.88
2022-08-26T12:14:07.199Z,101777.16
2022-08-26T12:16:37.272Z,101782.94
2022-08-26T12:19:27.459Z,101785.47
2022-08-26T12:22:00.645Z,101780.28
2022-08-26T12:24:27.453Z,101784.16
2022-08-26T12:27:28.205Z,101787.78
2022-08-26T12:30:13.918Z,101794.81
2022-08-26T12:32:58.020Z,101794.25
2022-08-26T12:35:29.740Z,101797.81
2022-08-26T12:37:57.673Z,101793.06
2022-08-26T12:40:47.643Z,101794.75
2022-08-26T12:43:34.965Z,101792.22
2022-08-26T12:46:01.732Z,101799.31
2022-08-26T12:48:31.950Z,101802.66
2022-08-26T12:51:00.416Z,101806.31
2022-08-26T12:53:31.935Z,101797.53
2022-08-26T12:56:05.279Z,101802.03
2022-08-26T12:58:36.075Z,101796.66
2022-08-26T13:01:08.935Z,101796.38
2022-08-26T13:03:38.748Z,101798.22
2022-08-26T13:06:29.771Z,101799.38
2022-08-26T13:09:06.180Z,101796.25
2022-08-26T13:11:55.796Z,101787.47
2022-08-26T13:14:24.735Z,101791.84
2022-08-26T13:16:52.413Z,101793.28
2022-08-26T13:19:22.096Z,101797.47
2022-08-26T13:21:55.429Z,101797.56
2022-08-26T13:24:28.701Z,101793.44
2022-08-26T13:26:56.118Z,101790.94
2022-08-26T13:29:23.144Z,101795.34
2022-08-26T13:31:51.785Z,101788.63
2022-08-26T13:34:20.100Z,101790.63
2022-08-26T13:36:48.342Z,101784.03
2022-08-26T13:39:15.891Z,101783.31
2022-08-26T13:41:43.360Z,101788.84
2022-08-26T13:44:11.391Z,101783.22
2022-08-26T13:46:38.527Z,101787.94
2022-08-26T13:49:06.411Z,101788.63
2022-08-26T13:51:33.678Z,101786.03
2022-08-26T13:54:00.526Z,101782.03
2022-08-26T13:56:29.748Z,101782.22
2022-08-26T13:58:57.496Z,101784.66
2022-08-26T14:01:24.411Z,101794.19
2022-08-26T14:03:51.253Z,101790.78
2022-08-26T14:06:18.174Z,101784.69
2022-08-26T14:08:45.475Z,101785.28
2022-08-26T14:11:12.147Z,101778.94
2022-08-26T14:13:41.174Z,101767.28
2022-08-26T14:16:10.281Z,101777.44
2022-08-26T14:18:42.171Z,101782.22
2022-08-26T14:21:12.817Z,101778.94
2022-08-26T14:23:40.237Z,101780.13
2022-08-26T14:26:08.498Z,101783.50
2022-08-26T14:28:36.351Z,101781.53
2022-08-26T14:31:04.332Z,101782.34
2022-08-26T14:33:32.791Z,101784.69
2022-08-26T14:36:20.510Z,101777.81
2022-08-26T14:38:47.493Z,101776.19
2022-08-26T14:41:17.360Z,101780.34
2022-08-26T14:43:49.541Z,101783.75
2022-08-26T14:46:17.019Z,101780.69
2022-08-26T14:48:43.943Z,101775.13
2022-08-26T14:51:10.973Z,101769.47
2022-08-26T14:53:56.250Z,101769.72
2022-08-26T14:56:22.872Z,101762.06
2022-08-26T14:58:49.454Z,101757.81
2022-08-26T15:01:17.459Z,101752.50
2022-08-26T15:03:44.810Z,101746.97
2022-08-26T15:06:13.083Z,101742.59
2022-08-26T15:08:40.167Z,101752.59
2022-08-26T15:11:06.809Z,101752.91
2022-08-26T15:13:33.557Z,101751.13
2022-08-26T15:16:00.223Z,101739.84
2022-08-26T15:18:26.860Z,101735.78
2022-08-26T15:20:53.552Z,101741.00
2022-08-26T15:23:20.317Z,101727.25
2022-08-26T15:25:48.369Z,101737.16
2022-08-26T15:28:15.042Z,101738.66
2022-08-26T15:30:42.036Z,101734.63
2022-08-26T15:33:15.027Z,101755.41
2022-08-26T15:35:42.922Z,101747.47
2022-08-26T15:38:10.284Z,101743.84
2022-08-26T15:40:37.196Z,101746.94
2022-08-26T15:43:18.393Z,101758.16
2022-08-26T15:45:51.106Z,101747.66
2022-08-26T15:48:17.703Z,101744.84
2022-08-26T15:51:22.084Z,101756.91
2022-08-26T15:53:50.099Z,101751.81
2022-08-26T15:56:17.244Z,101743.84
2022-08-26T15:58:44.799Z,101745.16
2022-08-26T16:01:11.587Z,101741.31
2022-08-26T16:03:38.332Z,101746.84
2022-08-26T16:06:05.184Z,101750.75
2022-08-26T16:08:36.494Z,101747.34
2022-08-26T16:11:04.383Z,101743.00
2022-08-26T16:13:39.504Z,101744.09
2022-08-26T16:16:07.859Z,101742.50
2022-08-26T16:18:34.555Z,101752.44
2022-08-26T16:21:12.778Z,101741.66
2022-08-26T16:23:45.116Z,101739.34
2022-08-26T16:26:21.703Z,101748.25
2022-08-26T16:28:48.491Z,101739.50
2022-08-26T16:31:15.630Z,101738.09
2022-08-26T16:33:42.212Z,101740.81
2022-08-26T16:36:09.976Z,101748.78
2022-08-26T16:38:38.170Z,101742.31
2022-08-26T16:41:05.986Z,101750.34
2022-08-26T16:43:32.655Z,101752.00
2022-08-26T16:45:59.560Z,101747.34
2022-08-26T16:48:27.599Z,101754.47
2022-08-26T16:50:55.728Z,101755.72
2022-08-26T16:53:23.087Z,101750.41
2022-08-26T16:55:50.482Z,101754.69
2022-08-26T16:58:18.741Z,101760.75
2022-08-26T17:00:45.474Z,101758.09
2022-08-26T17:03:12.532Z,101762.22
2022-08-26T17:05:40.364Z,101757.44
2022-08-26T17:08:07.539Z,101760.22
2022-08-26T17:10:34.416Z,101758.53
2022-08-26T17:13:01.361Z,101752.66
2022-08-26T17:15:28.522Z,101755.78
2022-08-26T17:17:56.823Z,101760.03
2022-08-26T17:20:24.524Z,101761.03
2022-08-26T17:22:53.264Z,101768.56
2022-08-26T17:25:27.158Z,101764.72
2022-08-26T17:27:54.004Z,101759.09
2022-08-26T17:30:21.441Z,101760.22
2022-08-26T17:32:48.546Z,101768.31
2022-08-26T17:35:16.323Z,101762.09
2022-08-26T17:37:43.885Z,101762.09
2022-08-26T17:40:15.506Z,101770.16
2022-08-26T17:42:42.803Z,101768.03
2022-08-26T17:45:10.797Z,101778.84
2022-08-26T17:47:39.303Z,101781.59
2022-08-26T17:50:09.506Z,101784.75
2022-08-26T17:52:37.229Z,101776.69
2022-08-26T17:55:05.239Z,101774.44
2022-08-26T17:57:32.109Z,101782.78
2022-08-26T18:00:11.955Z,101788.72
2022-08-26T18:02:39.347Z,101791.03
2022-08-26T18:05:06.905Z,101793.22
2022-08-26T18:07:33.630Z,101795.94
2022-08-26T18:10:13.195Z,101795.59
2022-08-26T18:12:41.014Z,101794.78
2022-08-26T18:15:08.965Z,101795.66
2022-08-26T18:17:35.591Z,101791.91
2022-08-26T18:20:02.263Z,101793.63
2022-08-26T18:22:29.040Z,101789.66
2022-08-26T18:24:58.772Z,101786.53
2022-08-26T18:27:25.990Z,101789.84
2022-08-26T18:29:52.635Z,101795.50
2022-08-26T18:32:19.769Z,101797.59
2022-08-26T18:34:46.336Z,101800.34
2022-08-26T18:37:14.122Z,101810.34
2022-08-26T18:39:41.043Z,101804.22
2022-08-26T18:42:07.988Z,101817.59
2022-08-26T18:44:34.517Z,101813.84
2022-08-26T18:47:01.118Z,101814.13
2022-08-26T18:49:27.710Z,101811.06
2022-08-26T18:51:54.650Z,101806.66
2022-08-26T18:54:21.770Z,101820.69
2022-08-26T18:56:48.695Z,101812.94
2022-08-26T18:59:15.494Z,101813.94
2022-08-26T19:01:43.124Z,101814.81
2022-08-26T19:04:15.541Z,101815.63
2022-08-26T19:06:42.770Z,101830.00
2022-08-26T19:09:11.907Z,101828.25
2022-08-26T19:11:42.918Z,101832.28
2022-08-26T19:14:13.866Z,101827.19
2022-08-26T19:16:42.946Z,101833.25
2022-08-26T19:19:10.365Z,101833.25
2022-08-26T19:21:38.255Z,101831.25
2022-08-26T19:24:09.399Z,101834.94
2022-08-26T19:26:36.774Z,101830.38
2022-08-26T19:29:03.854Z,101834.22
2022-08-26T19:31:31.276Z,101835.41
2022-08-26T19:33:58.955Z,101828.56
2022-08-26T19:36:26.875Z,101838.59
2022-08-26T19:38:55.849Z,101831.63
2022-08-26T19:41:36.494Z,101829.88
2022-08-26T19:44:10.914Z,101835.97
2022-08-26T19:49:05.140Z,101844.63
2022-08-26T19:51:34.628Z,101835.97
2022-08-26T19:54:02.331Z,101842.34
2022-08-26T19:56:29.337Z,101843.09
2022-08-26T19:58:56.228Z,101839.44
2022-08-26T20:01:23.909Z,101842.00
2022-08-26T20:03:50.664Z,101840.66
2022-08-26T20:06:17.836Z,101838.91
2022-08-26T20:08:44.806Z,101841.53
2022-08-26T20:11:15.241Z,101843.75
2022-08-26T20:13:42.497Z,101849.38
2022-08-26T20:16:11.567Z,101844.22
2022-08-26T20:19:00.986Z,101850.34
2022-08-26T20:21:29.600Z,101843.09
2022-08-26T20:24:03.501Z,101841.16
2022-08-26T20:26:32.463Z,101846.81
2022-08-26T20:28:59.740Z,101838.44
2022-08-26T20:31:26.955Z,101843.00
2022-08-26T20:33:57.711Z,101848.00
2022-08-26T20:36:27.138Z,101849.91
2022-08-26T20:38:56.060Z,101841.31
2022-08-26T20:41:25.520Z,101848.03
2022-08-26T20:43:56.016Z,101839.31
2022-08-26T20:46:24.821Z,101850.66
2022-08-26T20:48:53.269Z,101843.09
2022-08-26T20:51:21.035Z,101837.81
2022-08-26T20:53:47.681Z,101835.59
2022-08-26T20:56:15.894Z,101841.28
2022-08-26T20:58:42.954Z,101834.47
2022-08-26T21:01:19.752Z,101842.03
2022-08-26T21:03:47.045Z,101840.13
2022-08-26T21:06:13.968Z,101843.91
2022-08-26T21:08:43.340Z,101850.00
2022-08-26T21:11:11.595Z,101844.69
2022-08-26T21:13:54.475Z,101846.22
2022-08-26T21:16:25.428Z,101847.41
2022-08-26T21:18:52.534Z,101845.53
2022-08-26T21:21:19.977Z,101839.84
2022-08-26T21:23:51.793Z,101845.50
2022-08-26T21:26:18.404Z,101840.97
2022-08-26T21:28:48.211Z,101850.41
2022-08-26T21:31:17.683Z,101855.31
2022-08-26T21:33:45.169Z,101852.28
2022-08-26T21:36:13.419Z,101857.25
2022-08-26T21:38:41.270Z,101855.34
2022-08-26T21:41:19.456Z,101856.13
2022-08-26T21:43:47.768Z,101855.72
2022-08-26T21:46:17.153Z,101852.72
2022-08-26T21:48:53.636Z,101854.97
2022-08-26T21:51:22.712Z,101860.25
2022-08-26T21:53:50.179Z,101854.22
2022-08-26T21:56:18.799Z,101855.38
2022-08-26T21:58:46.153Z,101861.81
2022-08-26T22:01:15.728Z,101865.19
2022-08-26T22:03:46.903Z,101866.72
2022-08-26T22:06:16.270Z,101864.44
2022-08-26T22:08:42.985Z,101869.38
2022-08-26T22:11:10.479Z,101872.00
2022-08-26T22:13:38.892Z,101871.63
2022-08-26T22:16:07.112Z,101874.66
2022-08-26T22:18:34.681Z,101869.75
2022-08-26T22:21:04.532Z,101868.59
2022-08-26T22:23:31.462Z,101859.19
2022-08-26T22:25:58.376Z,101864.84
2022-08-26T22:28:25.067Z,101858.38
2022-08-26T22:30:52.283Z,101859.91
2022-08-26T22:33:18.978Z,101858.38
2022-08-26T22:35:48.348Z,101861.81
2022-08-26T22:38:15.843Z,101864.44
2022-08-26T22:40:52.077Z,101861.44
2022-08-26T22:43:19.362Z,101862.19
2022-08-26T22:45:48.435Z,101860.66
2022-08-26T22:48:18.041Z,101856.50
2022-08-26T22:50:49.006Z,101861.81
2022-08-26T22:53:17.126Z,101861.41
2022-08-26T22:55:44.858Z,101861.44
2022-08-26T22:58:13.527Z,101861.44
2022-08-26T23:00:41.984Z,101860.69
2022-08-26T23:03:09.517Z,101860.69
2022-08-26T23:05:36.359Z,101853.09
2022-08-26T23:08:03.166Z,101856.91
2022-08-26T23:10:30.065Z,101860.28
2022-08-26T23:12:57.544Z,101861.44
2022-08-26T23:15:24.674Z,101853.88
2022-08-26T23:17:58.761Z,101847.47
2022-08-26T23:20:26.898Z,101848.59
2022-08-26T23:22:54.140Z,101848.59
2022-08-26T23:25:21.314Z,101849.72
2022-08-26T23:27:49.236Z,101851.22
2022-08-26T23:30:20.844Z,101846.69
2022-08-26T23:32:48.188Z,101850.47
2022-08-26T23:35:15.205Z,101852.34
2022-08-26T23:37:46.174Z,101854.63
2022-08-26T23:40:25.549Z,101853.13
2022-08-26T23:42:56.982Z,101849.72
2022-08-26T23:45:24.646Z,101842.94
2022-08-26T23:47:51.755Z,101840.66
2022-08-26T23:50:20.523Z,101846.31
2022-08-26T23:53:05.908Z,101846.31
2022-08-26T23:55:39.943Z,101846.69
2022-08-26T23:58:07.047Z,101839.13
